sensor_id;sensor_type;location;lat;lon;timestamp;pressure;altitude;pressure_sealevel;temperature;humidity
76024;BME280;64719;52.124;6.226;2022-11-20T00:02:08;101514.34;;;-4.81;99.51
76024;BME280;64719;52.124;6.226;2022-11-20T00:04:36;101512.19;;;-4.65;99.78
76024;BME280;64719;52.124;6.226;2022-11-20T00:07:02;101506.50;;;-4.82;99.54
76024;BME280;64719;52.124;6.226;2022-11-20T00:09:28;101509.50;;;-4.87;100.00
76024;BME280;64719;52.124;6.226;2022-11-20T00:11:55;101507.97;;;-4.89;99.37
76024;BME280;64719;52.124;6.226;2022-11-20T00:14:22;101512.16;;;-4.87;99.75
76024;BME280;64719;52.124;6.226;2022-11-20T00:16:49;101507.59;;;-4.74;99.92
76024;BME280;64719;52.124;6.226;2022-11-20T00:19:16;101517.19;;;-4.95;99.43
76024;BME280;64719;52.124;6.226;2022-11-20T00:21:42;101508.53;;;-4.97;99.60
76024;BME280;64719;52.124;6.226;2022-11-20T00:24:09;101495.56;;;-4.89;99.59
76024;BME280;64719;52.124;6.226;2022-11-20T00:26:36;101494.72;;;-4.78;100.00
76024;BME280;64719;52.124;6.226;2022-11-20T00:29:03;101493.91;;;-4.79;99.86
76024;BME280;64719;52.124;6.226;2022-11-20T00:31:30;101493.25;;;-4.93;99.72
76024;BME280;64719;52.124;6.226;2022-11-20T00:33:59;101492.56;;;-4.84;100.00
76024;BME280;64719;52.124;6.226;2022-11-20T00:36:27;101499.94;;;-4.66;100.00
76024;BME280;64719;52.124;6.226;2022-11-20T00:38:56;101501.56;;;-4.87;99.97
76024;BME280;64719;52.124;6.226;2022-11-20T00:41:23;101494.63;;;-4.88;100.00
76024;BME280;64719;52.124;6.226;2022-11-20T00:43:51;101485.25;;;-4.70;100.00
76024;BME280;64719;52.124;6.226;2022-11-20T00:46:19;101490.38;;;-4.90;99.85
76024;BME280;64719;52.124;6.226;2022-11-20T00:48:46;101481.81;;;-5.05;100.00
76024;BME280;64719;52.124;6.226;2022-11-20T00:51:16;101496.94;;;-5.07;99.86
76024;BME280;64719;52.124;6.226;2022-11-20T00:53:43;101485.44;;;-5.06;99.87
76024;BME280;64719;52.124;6.226;2022-11-20T00:56:11;101476.59;;;-5.17;99.75
76024;BME280;64719;52.124;6.226;2022-11-20T00:58:39;101483.97;;;-5.10;100.00
76024;BME280;64719;52.124;6.226;2022-11-20T01:01:07;101482.78;;;-5.06;100.00
76024;BME280;64719;52.124;6.226;2022-11-20T01:03:36;101486.28;;;-4.94;100.00
76024;BME280;64719;52.124;6.226;2022-11-20T01:06:04;101488.91;;;-5.05;99.68
76024;BME280;64719;52.124;6.226;2022-11-20T01:08:34;101482.16;;;-5.09;100.00
76024;BME280;64719;52.124;6.226;2022-11-20T01:11:01;101484.31;;;-5.14;100.00
76024;BME280;64719;52.124;6.226;2022-11-20T01:13:29;101494.66;;;-5.11;100.00
76024;BME280;64719;52.124;6.226;2022-11-20T01:16:07;101491.19;;;-5.12;100.00
76024;BME280;64719;52.124;6.226;2022-11-20T01:18:34;101485.81;;;-4.88;100.00
76024;BME280;64719;52.124;6.226;2022-11-20T01:21:02;101484.03;;;-4.88;100.00
76024;BME280;64719;52.124;6.226;2022-11-20T01:23:32;101486.41;;;-4.96;100.00
76024;BME280;64719;52.124;6.226;2022-11-20T01:26:00;101482.13;;;-5.20;100.00
76024;BME280;64719;52.124;6.226;2022-11-20T01:28:28;101474.22;;;-5.09;100.00
76024;BME280;64719;52.124;6.226;2022-11-20T01:30:55;101481.16;;;-5.19;100.00
76024;BME280;64719;52.124;6.226;2022-11-20T01:33:22;101471.50;;;-5.31;100.00
76024;BME280;64719;52.124;6.226;2022-11-20T01:35:48;101468.63;;;-5.28;99.94
76024;BME280;64719;52.124;6.226;2022-11-20T01:38:15;101465.13;;;-5.40;100.00
76024;BME280;64719;52.124;6.226;2022-11-20T01:40:43;101478.84;;;-5.35;100.00
76024;BME280;64719;52.124;6.226;2022-11-20T01:43:17;101474.94;;;-5.18;100.00
76024;BME280;64719;52.124;6.226;2022-11-20T01:46:05;101470.16;;;-5.37;100.00
76024;BME280;64719;52.124;6.226;2022-11-20T01:48:38;101468.34;;;-5.47;100.00
76024;BME280;64719;52.124;6.226;2022-11-20T01:51:12;101463.38;;;-5.52;100.00
76024;BME280;64719;52.124;6.226;2022-11-20T01:53:41;101463.69;;;-5.33;100.00
76024;BME280;64719;52.124;6.226;2022-11-20T01:56:10;101456.59;;;-5.32;100.00
76024;BME280;64719;52.124;6.226;2022-11-20T01:58:42;101451.47;;;-5.23;100.00
76024;BME280;64719;52.124;6.226;2022-11-20T02:01:11;101452.16;;;-5.32;100.00
76024;BME280;64719;52.124;6.226;2022-11-20T02:03:39;101456.59;;;-5.32;100.00
76024;BME280;64719;52.124;6.226;2022-11-20T02:06:11;101453.88;;;-5.20;100.00
76024;BME280;64719;52.124;6.226;2022-11-20T02:08:39;101446.22;;;-5.46;100.00
76024;BME280;64719;52.124;6.226;2022-11-20T02:11:06;101446.44;;;-5.49;100.00
76024;BME280;64719;52.124;6.226;2022-11-20T02:13:34;101446.72;;;-5.41;100.00
76024;BME280;64719;52.124;6.226;2022-11-20T02:16:13;101443.13;;;-5.40;100.00
76024;BME280;64719;52.124;6.226;2022-11-20T02:18:41;101445.56;;;-5.26;100.00
76024;BME280;64719;52.124;6.226;2022-11-20T02:21:14;101437.28;;;-5.22;100.00
76024;BME280;64719;52.124;6.226;2022-11-20T02:24:00;101425.34;;;-5.38;100.00
76024;BME280;64719;52.124;6.226;2022-11-20T02:26:28;101426.03;;;-5.47;100.00
76024;BME280;64719;52.124;6.226;2022-11-20T02:28:56;101425.06;;;-5.57;100.00
76024;BME280;64719;52.124;6.226;2022-11-20T02:31:24;101419.38;;;-5.64;100.00
76024;BME280;64719;52.124;6.226;2022-11-20T02:33:55;101410.00;;;-5.68;100.00
76024;BME280;64719;52.124;6.226;2022-11-20T02:36:21;101409.16;;;-5.69;100.00
76024;BME280;64719;52.124;6.226;2022-11-20T02:38:50;101416.72;;;-5.64;100.00
76024;BME280;64719;52.124;6.226;2022-11-20T02:41:18;101413.84;;;-5.61;100.00
76024;BME280;64719;52.124;6.226;2022-11-20T02:43:44;101416.91;;;-5.78;100.00
76024;BME280;64719;52.124;6.226;2022-11-20T02:46:11;101424.00;;;-5.79;100.00
76024;BME280;64719;52.124;6.226;2022-11-20T02:48:37;101423.53;;;-5.84;100.00
76024;BME280;64719;52.124;6.226;2022-11-20T02:51:04;101419.91;;;-5.83;100.00
76024;BME280;64719;52.124;6.226;2022-11-20T02:53:31;101421.63;;;-5.82;100.00
76024;BME280;64719;52.124;6.226;2022-11-20T02:55:57;101415.84;;;-5.76;100.00
76024;BME280;64719;52.124;6.226;2022-11-20T02:58:25;101418.56;;;-5.53;100.00
76024;BME280;64719;52.124;6.226;2022-11-20T03:00:52;101418.00;;;-5.46;100.00
76024;BME280;64719;52.124;6.226;2022-11-20T03:03:18;101422.41;;;-5.57;100.00
76024;BME280;64719;52.124;6.226;2022-11-20T03:05:45;101416.09;;;-5.79;100.00
76024;BME280;64719;52.124;6.226;2022-11-20T03:08:11;101419.03;;;-5.59;100.00
76024;BME280;64719;52.124;6.226;2022-11-20T03:10:38;101410.00;;;-5.33;100.00
76024;BME280;64719;52.124;6.226;2022-11-20T03:13:04;101416.78;;;-5.53;100.00
76024;BME280;64719;52.124;6.226;2022-11-20T03:15:32;101415.41;;;-5.58;100.00
76024;BME280;64719;52.124;6.226;2022-11-20T03:17:59;101404.72;;;-5.68;100.00
76024;BME280;64719;52.124;6.226;2022-11-20T03:20:25;101414.13;;;-5.53;100.00
76024;BME280;64719;52.124;6.226;2022-11-20T03:22:53;101415.69;;;-5.50;100.00
76024;BME280;64719;52.124;6.226;2022-11-20T03:25:20;101417.06;;;-5.69;100.00
76024;BME280;64719;52.124;6.226;2022-11-20T03:27:46;101405.41;;;-5.77;100.00
76024;BME280;64719;52.124;6.226;2022-11-20T03:30:13;101411.50;;;-5.88;100.00
76024;BME280;64719;52.124;6.226;2022-11-20T03:32:41;101404.88;;;-5.93;100.00
76024;BME280;64719;52.124;6.226;2022-11-20T03:35:08;101400.44;;;-5.93;100.00
76024;BME280;64719;52.124;6.226;2022-11-20T03:37:35;101400.72;;;-5.74;100.00
76024;BME280;64719;52.124;6.226;2022-11-20T03:40:02;101394.72;;;-5.76;100.00
76024;BME280;64719;52.124;6.226;2022-11-20T03:42:29;101400.94;;;-5.88;100.00
76024;BME280;64719;52.124;6.226;2022-11-20T03:45:14;101391.06;;;-5.97;100.00
76024;BME280;64719;52.124;6.226;2022-11-20T03:47:43;101390.22;;;-5.97;100.00
76024;BME280;64719;52.124;6.226;2022-11-20T03:50:12;101388.22;;;-5.83;100.00
76024;BME280;64719;52.124;6.226;2022-11-20T03:52:39;101386.44;;;-5.82;100.00
76024;BME280;64719;52.124;6.226;2022-11-20T03:55:06;101393.88;;;-5.76;100.00
76024;BME280;64719;52.124;6.226;2022-11-20T03:57:32;101396.16;;;-5.83;100.00
76024;BME280;64719;52.124;6.226;2022-11-20T03:59:59;101389.66;;;-5.79;100.00
76024;BME280;64719;52.124;6.226;2022-11-20T04:02:25;101387.50;;;-5.85;100.00
76024;BME280;64719;52.124;6.226;2022-11-20T04:04:53;101385.56;;;-5.94;100.00
76024;BME280;64719;52.124;6.226;2022-11-20T04:07:20;101383.25;;;-5.98;100.00
76024;BME280;64719;52.124;6.226;2022-11-20T04:09:46;101368.53;;;-6.13;100.00
76024;BME280;64719;52.124;6.226;2022-11-20T04:12:13;101372.91;;;-6.01;100.00
76024;BME280;64719;52.124;6.226;2022-11-20T04:14:39;101363.16;;;-6.12;100.00
76024;BME280;64719;52.124;6.226;2022-11-20T04:17:06;101364.94;;;-6.12;100.00
76024;BME280;64719;52.124;6.226;2022-11-20T04:19:32;101376.00;;;-6.07;100.00
76024;BME280;64719;52.124;6.226;2022-11-20T04:22:00;101373.53;;;-6.21;100.00
76024;BME280;64719;52.124;6.226;2022-11-20T04:24:27;101370.16;;;-6.23;100.00
76024;BME280;64719;52.124;6.226;2022-11-20T04:26:53;101367.13;;;-6.30;100.00
76024;BME280;64719;52.124;6.226;2022-11-20T04:29:20;101374.84;;;-6.27;100.00
76024;BME280;64719;52.124;6.226;2022-11-20T04:31:46;101375.28;;;-6.33;100.00
76024;BME280;64719;52.124;6.226;2022-11-20T04:34:13;101375.19;;;-6.44;100.00
76024;BME280;64719;52.124;6.226;2022-11-20T04:36:39;101385.09;;;-6.35;100.00
76024;BME280;64719;52.124;6.226;2022-11-20T04:39:12;101372.06;;;-6.25;100.00
76024;BME280;64719;52.124;6.226;2022-11-20T04:41:39;101369.03;;;-6.32;100.00
76024;BME280;64719;52.124;6.226;2022-11-20T04:44:06;101363.25;;;-6.13;100.00
76024;BME280;64719;52.124;6.226;2022-11-20T04:46:34;101358.56;;;-5.86;100.00
76024;BME280;64719;52.124;6.226;2022-11-20T04:49:01;101370.69;;;-5.84;100.00
76024;BME280;64719;52.124;6.226;2022-11-20T04:51:27;101370.75;;;-5.96;100.00
76024;BME280;64719;52.124;6.226;2022-11-20T04:53:54;101368.91;;;-6.07;100.00
76024;BME280;64719;52.124;6.226;2022-11-20T04:56:22;101358.38;;;-6.30;100.00
76024;BME280;64719;52.124;6.226;2022-11-20T04:58:49;101357.25;;;-6.39;100.00
76024;BME280;64719;52.124;6.226;2022-11-20T05:01:17;101357.63;;;-6.32;100.00
76024;BME280;64719;52.124;6.226;2022-11-20T05:03:45;101360.16;;;-6.31;100.00
76024;BME280;64719;52.124;6.226;2022-11-20T05:06:16;101360.47;;;-6.35;100.00
76024;BME280;64719;52.124;6.226;2022-11-20T05:08:43;101368.03;;;-6.18;100.00
76024;BME280;64719;52.124;6.226;2022-11-20T05:11:11;101366.50;;;-6.33;100.00
76024;BME280;64719;52.124;6.226;2022-11-20T05:13:40;101371.19;;;-6.49;100.00
76024;BME280;64719;52.124;6.226;2022-11-20T05:16:08;101370.38;;;-6.50;100.00
76024;BME280;64719;52.124;6.226;2022-11-20T05:18:35;101360.53;;;-6.48;100.00
76024;BME280;64719;52.124;6.226;2022-11-20T05:21:02;101371.81;;;-6.46;100.00
76024;BME280;64719;52.124;6.226;2022-11-20T05:23:30;101372.81;;;-6.59;100.00
76024;BME280;64719;52.124;6.226;2022-11-20T05:25:57;101369.03;;;-6.68;100.00
76024;BME280;64719;52.124;6.226;2022-11-20T05:28:24;101359.25;;;-6.78;100.00
76024;BME280;64719;52.124;6.226;2022-11-20T05:30:52;101352.38;;;-6.68;100.00
76024;BME280;64719;52.124;6.226;2022-11-20T05:33:20;101347.72;;;-6.65;100.00
76024;BME280;64719;52.124;6.226;2022-11-20T05:35:46;101352.56;;;-6.59;100.00
76024;BME280;64719;52.124;6.226;2022-11-20T05:38:13;101354.97;;;-6.56;100.00
76024;BME280;64719;52.124;6.226;2022-11-20T05:40:40;101358.97;;;-6.50;100.00
76024;BME280;64719;52.124;6.226;2022-11-20T05:43:06;101349.63;;;-6.67;100.00
76024;BME280;64719;52.124;6.226;2022-11-20T05:45:33;101351.69;;;-6.59;100.00
76024;BME280;64719;52.124;6.226;2022-11-20T05:48:01;101352.78;;;-6.62;100.00
76024;BME280;64719;52.124;6.226;2022-11-20T05:50:27;101350.81;;;-6.71;100.00
76024;BME280;64719;52.124;6.226;2022-11-20T05:52:54;101342.38;;;-6.76;100.00
76024;BME280;64719;52.124;6.226;2022-11-20T05:55:21;101333.22;;;-6.59;100.00
76024;BME280;64719;52.124;6.226;2022-11-20T05:57:47;101335.03;;;-6.60;100.00
76024;BME280;64719;52.124;6.226;2022-11-20T06:00:15;101327.31;;;-6.63;100.00
76024;BME280;64719;52.124;6.226;2022-11-20T06:02:41;101333.66;;;-6.53;100.00
76024;BME280;64719;52.124;6.226;2022-11-20T06:05:09;101326.72;;;-6.43;100.00
76024;BME280;64719;52.124;6.226;2022-11-20T06:07:36;101333.16;;;-6.34;100.00
76024;BME280;64719;52.124;6.226;2022-11-20T06:10:02;101341.44;;;-6.28;100.00
76024;BME280;64719;52.124;6.226;2022-11-20T06:12:31;101352.00;;;-6.28;100.00
76024;BME280;64719;52.124;6.226;2022-11-20T06:14:57;101350.09;;;-6.26;100.00
76024;BME280;64719;52.124;6.226;2022-11-20T06:17:24;101344.97;;;-6.63;100.00
76024;BME280;64719;52.124;6.226;2022-11-20T06:19:51;101353.09;;;-6.66;100.00
76024;BME280;64719;52.124;6.226;2022-11-20T06:22:18;101362.44;;;-6.50;100.00
76024;BME280;64719;52.124;6.226;2022-11-20T06:24:45;101356.25;;;-6.61;100.00
76024;BME280;64719;52.124;6.226;2022-11-20T06:27:11;101343.75;;;-6.83;99.76
76024;BME280;64719;52.124;6.226;2022-11-20T06:29:38;101344.91;;;-6.87;100.00
76024;BME280;64719;52.124;6.226;2022-11-20T06:32:04;101342.72;;;-6.93;99.96
76024;BME280;64719;52.124;6.226;2022-11-20T06:34:31;101350.94;;;-6.97;100.00
76024;BME280;64719;52.124;6.226;2022-11-20T06:36:57;101351.47;;;-7.05;100.00
76024;BME280;64719;52.124;6.226;2022-11-20T06:39:25;101348.34;;;-7.10;100.00
76024;BME280;64719;52.124;6.226;2022-11-20T06:41:52;101354.22;;;-6.94;100.00
76024;BME280;64719;52.124;6.226;2022-11-20T06:44:18;101359.16;;;-6.77;100.00
76024;BME280;64719;52.124;6.226;2022-11-20T06:46:45;101357.50;;;-7.03;100.00
76024;BME280;64719;52.124;6.226;2022-11-20T06:49:11;101356.75;;;-7.05;100.00
76024;BME280;64719;52.124;6.226;2022-11-20T06:51:38;101364.69;;;-6.69;100.00
76024;BME280;64719;52.124;6.226;2022-11-20T06:54:04;101363.56;;;-6.77;100.00
76024;BME280;64719;52.124;6.226;2022-11-20T06:56:32;101367.56;;;-6.72;100.00
76024;BME280;64719;52.124;6.226;2022-11-20T06:59:03;101371.91;;;-6.71;100.00
76024;BME280;64719;52.124;6.226;2022-11-20T07:01:30;101364.91;;;-6.72;100.00
76024;BME280;64719;52.124;6.226;2022-11-20T07:03:56;101356.19;;;-6.85;99.72
76024;BME280;64719;52.124;6.226;2022-11-20T07:06:23;101355.88;;;-6.80;99.61
76024;BME280;64719;52.124;6.226;2022-11-20T07:08:50;101364.09;;;-6.72;99.82
76024;BME280;64719;52.124;6.226;2022-11-20T07:11:16;101363.34;;;-6.62;100.00
76024;BME280;64719;52.124;6.226;2022-11-20T07:13:44;101370.81;;;-6.56;100.00
76024;BME280;64719;52.124;6.226;2022-11-20T07:16:11;101362.88;;;-6.56;99.67
76024;BME280;64719;52.124;6.226;2022-11-20T07:18:37;101375.53;;;-6.48;100.00
76024;BME280;64719;52.124;6.226;2022-11-20T07:21:05;101362.31;;;-6.36;99.75
76024;BME280;64719;52.124;6.226;2022-11-20T07:23:32;101368.41;;;-6.35;99.02
76024;BME280;64719;52.124;6.226;2022-11-20T07:26:02;101370.47;;;-6.51;99.47
76024;BME280;64719;52.124;6.226;2022-11-20T07:28:29;101367.66;;;-6.61;98.56
76024;BME280;64719;52.124;6.226;2022-11-20T07:30:57;101368.53;;;-6.49;98.91
76024;BME280;64719;52.124;6.226;2022-11-20T07:33:23;101372.34;;;-6.17;99.18
76024;BME280;64719;52.124;6.226;2022-11-20T07:35:50;101376.69;;;-6.16;98.46
76024;BME280;64719;52.124;6.226;2022-11-20T07:38:16;101360.97;;;-6.18;98.44
76024;BME280;64719;52.124;6.226;2022-11-20T07:40:43;101353.53;;;-6.13;98.86
76024;BME280;64719;52.124;6.226;2022-11-20T07:43:09;101361.00;;;-6.07;98.74
76024;BME280;64719;52.124;6.226;2022-11-20T07:45:36;101355.72;;;-6.07;99.06
76024;BME280;64719;52.124;6.226;2022-11-20T07:48:04;101358.56;;;-5.86;98.31
76024;BME280;64719;52.124;6.226;2022-11-20T07:50:31;101344.50;;;-5.87;98.25
76024;BME280;64719;52.124;6.226;2022-11-20T07:53:01;101339.34;;;-5.77;98.34
76024;BME280;64719;52.124;6.226;2022-11-20T07:55:28;101342.47;;;-5.72;98.36
76024;BME280;64719;52.124;6.226;2022-11-20T07:57:55;101328.94;;;-5.56;98.12
76024;BME280;64719;52.124;6.226;2022-11-20T08:00:22;101332.69;;;-5.59;97.60
76024;BME280;64719;52.124;6.226;2022-11-20T08:02:49;101330.63;;;-5.55;97.61
76024;BME280;64719;52.124;6.226;2022-11-20T08:05:17;101336.44;;;-5.39;98.24
76024;BME280;64719;52.124;6.226;2022-11-20T08:07:44;101339.78;;;-5.26;97.99
76024;BME280;64719;52.124;6.226;2022-11-20T08:10:12;101345.22;;;-5.17;97.95
76024;BME280;64719;52.124;6.226;2022-11-20T08:12:43;101340.66;;;-5.04;97.12
76024;BME280;64719;52.124;6.226;2022-11-20T08:15:28;101341.72;;;-4.84;97.83
76024;BME280;64719;52.124;6.226;2022-11-20T08:17:59;101339.31;;;-4.76;96.51
76024;BME280;64719;52.124;6.226;2022-11-20T08:20:27;101336.31;;;-4.72;96.28
76024;BME280;64719;52.124;6.226;2022-11-20T08:22:57;101342.53;;;-4.62;96.39
76024;BME280;64719;52.124;6.226;2022-11-20T08:25:24;101318.34;;;-4.57;96.46
76024;BME280;64719;52.124;6.226;2022-11-20T08:27:51;101334.31;;;-4.37;96.56
76024;BME280;64719;52.124;6.226;2022-11-20T08:30:18;101329.34;;;-4.30;96.62
76024;BME280;64719;52.124;6.226;2022-11-20T08:32:44;101329.06;;;-4.16;96.22
76024;BME280;64719;52.124;6.226;2022-11-20T08:35:11;101331.19;;;-3.99;96.44
76024;BME280;64719;52.124;6.226;2022-11-20T08:37:38;101328.59;;;-3.90;96.23
76024;BME280;64719;52.124;6.226;2022-11-20T08:40:07;101325.84;;;-2.87;95.19
76024;BME280;64719;52.124;6.226;2022-11-20T08:42:33;101326.50;;;1.50;83.22
76024;BME280;64719;52.124;6.226;2022-11-20T08:45:00;101318.59;;;2.78;73.94
76024;BME280;64719;52.124;6.226;2022-11-20T08:47:26;101318.09;;;1.03;75.67
76024;BME280;64719;52.124;6.226;2022-11-20T08:49:53;101323.16;;;-0.87;84.67
76024;BME280;64719;52.124;6.226;2022-11-20T08:52:19;101326.31;;;-1.85;88.02
76024;BME280;64719;52.124;6.226;2022-11-20T08:54:47;101325.03;;;-1.81;88.87
76024;BME280;64719;52.124;6.226;2022-11-20T08:57:14;101318.59;;;-1.69;89.33
76024;BME280;64719;52.124;6.226;2022-11-20T08:59:40;101317.91;;;-1.71;88.87
76024;BME280;64719;52.124;6.226;2022-11-20T09:02:07;101312.84;;;-1.45;88.96
76024;BME280;64719;52.124;6.226;2022-11-20T09:04:34;101298.38;;;-1.24;88.87
76024;BME280;64719;52.124;6.226;2022-11-20T09:07:00;101304.38;;;-1.31;88.35
76024;BME280;64719;52.124;6.226;2022-11-20T09:09:27;101306.22;;;-1.32;88.32
76024;BME280;64719;52.124;6.226;2022-11-20T09:11:55;101305.84;;;-1.10;88.66
76024;BME280;64719;52.124;6.226;2022-11-20T09:14:21;101306.88;;;-1.20;88.08
76024;BME280;64719;52.124;6.226;2022-11-20T09:16:49;101295.59;;;-0.95;88.41
76024;BME280;64719;52.124;6.226;2022-11-20T09:19:16;101297.75;;;-0.81;88.28
76024;BME280;64719;52.124;6.226;2022-11-20T09:21:42;101286.06;;;-0.71;87.87
76024;BME280;64719;52.124;6.226;2022-11-20T09:24:09;101295.03;;;-0.72;86.94
76024;BME280;64719;52.124;6.226;2022-11-20T09:26:36;101287.34;;;-0.30;88.41
76024;BME280;64719;52.124;6.226;2022-11-20T09:29:04;101282.09;;;3.93;80.60
76024;BME280;64719;52.124;6.226;2022-11-20T09:31:30;101285.44;;;6.70;69.80
76024;BME280;64719;52.124;6.226;2022-11-20T09:33:57;101285.25;;;6.71;67.76
76024;BME280;64719;52.124;6.226;2022-11-20T09:36:24;101283.28;;;9.06;56.49
76024;BME280;64719;52.124;6.226;2022-11-20T09:38:50;101283.03;;;9.14;59.52
76024;BME280;64719;52.124;6.226;2022-11-20T09:44:37;101275.97;;;3.15;71.50
76024;BME280;64719;52.124;6.226;2022-11-20T09:47:08;101287.13;;;1.76;75.35
76024;BME280;64719;52.124;6.226;2022-11-20T09:49:51;101276.75;;;1.73;78.09
76024;BME280;64719;52.124;6.226;2022-11-20T09:52:22;101272.34;;;1.40;77.80
76024;BME280;64719;52.124;6.226;2022-11-20T09:54:54;101283.91;;;1.07;78.99
76024;BME280;64719;52.124;6.226;2022-11-20T09:57:23;101273.59;;;1.20;80.71
76024;BME280;64719;52.124;6.226;2022-11-20T09:59:56;101274.75;;;1.17;81.09
76024;BME280;64719;52.124;6.226;2022-11-20T10:02:28;101276.13;;;1.29;81.12
76024;BME280;64719;52.124;6.226;2022-11-20T10:04:59;101262.09;;;1.27;79.92
76024;BME280;64719;52.124;6.226;2022-11-20T10:07:32;101264.31;;;1.40;80.75
76024;BME280;64719;52.124;6.226;2022-11-20T10:10:01;101260.38;;;1.68;79.83
76024;BME280;64719;52.124;6.226;2022-11-20T10:12:36;101265.38;;;1.71;79.86
76024;BME280;64719;52.124;6.226;2022-11-20T10:15:24;101258.41;;;1.78;81.12
76024;BME280;64719;52.124;6.226;2022-11-20T10:18:03;101255.69;;;1.70;79.65
76024;BME280;64719;52.124;6.226;2022-11-20T10:20:42;101251.88;;;2.05;78.25
76024;BME280;64719;52.124;6.226;2022-11-20T10:23:23;101244.31;;;2.40;77.79
76024;BME280;64719;52.124;6.226;2022-11-20T10:26:00;101245.50;;;2.30;78.29
76024;BME280;64719;52.124;6.226;2022-11-20T10:28:30;101240.34;;;2.12;78.97
76024;BME280;64719;52.124;6.226;2022-11-20T10:31:03;101232.16;;;1.98;79.46
76024;BME280;64719;52.124;6.226;2022-11-20T10:33:33;101222.44;;;2.37;79.14
76024;BME280;64719;52.124;6.226;2022-11-20T10:36:08;101229.63;;;2.12;80.26
76024;BME280;64719;52.124;6.226;2022-11-20T10:38:43;101226.44;;;2.41;77.99
76024;BME280;64719;52.124;6.226;2022-11-20T10:41:17;101229.09;;;2.49;77.30
76024;BME280;64719;52.124;6.226;2022-11-20T10:43:56;101230.59;;;2.59;77.21
76024;BME280;64719;52.124;6.226;2022-11-20T10:46:32;101232.28;;;2.36;76.99
76024;BME280;64719;52.124;6.226;2022-11-20T10:49:04;101236.16;;;2.34;77.28
76024;BME280;64719;52.124;6.226;2022-11-20T10:51:37;101235.63;;;2.46;79.38
76024;BME280;64719;52.124;6.226;2022-11-20T10:54:15;101231.91;;;2.71;79.40
76024;BME280;64719;52.124;6.226;2022-11-20T10:56:46;101224.09;;;3.00;76.90
76024;BME280;64719;52.124;6.226;2022-11-20T10:59:35;101219.00;;;2.75;76.61
76024;BME280;64719;52.124;6.226;2022-11-20T11:02:17;101213.56;;;2.99;76.34
76024;BME280;64719;52.124;6.226;2022-11-20T11:04:45;101217.63;;;2.87;76.33
76024;BME280;64719;52.124;6.226;2022-11-20T11:07:13;101209.34;;;3.04;76.45
76024;BME280;64719;52.124;6.226;2022-11-20T11:09:45;101206.50;;;2.98;76.98
76024;BME280;64719;52.124;6.226;2022-11-20T11:12:13;101202.25;;;3.42;75.67
76024;BME280;64719;52.124;6.226;2022-11-20T11:14:44;101202.28;;;3.87;74.77
76024;BME280;64719;52.124;6.226;2022-11-20T11:17:24;101197.63;;;3.81;74.70
76024;BME280;64719;52.124;6.226;2022-11-20T11:20:06;101191.00;;;3.16;75.78
76024;BME280;64719;52.124;6.226;2022-11-20T11:22:33;101185.03;;;2.67;77.65
76024;BME280;64719;52.124;6.226;2022-11-20T11:25:01;101170.44;;;2.70;78.29
76024;BME280;64719;52.124;6.226;2022-11-20T11:27:28;101184.34;;;3.12;77.37
76024;BME280;64719;52.124;6.226;2022-11-20T11:30:13;101177.81;;;3.59;77.09
76024;BME280;64719;52.124;6.226;2022-11-20T11:32:41;101177.78;;;3.90;75.80
76024;BME280;64719;52.124;6.226;2022-11-20T11:35:21;101152.88;;;3.59;75.19
76024;BME280;64719;52.124;6.226;2022-11-20T11:37:48;101162.16;;;3.48;76.67
76024;BME280;64719;52.124;6.226;2022-11-20T11:40:17;101157.06;;;3.76;77.15
76024;BME280;64719;52.124;6.226;2022-11-20T11:42:50;101158.19;;;4.04;75.75
76024;BME280;64719;52.124;6.226;2022-11-20T11:45:18;101155.63;;;4.40;74.62
76024;BME280;64719;52.124;6.226;2022-11-20T11:47:47;101149.25;;;4.70;74.19
76024;BME280;64719;52.124;6.226;2022-11-20T11:50:16;101140.72;;;4.81;74.48
76024;BME280;64719;52.124;6.226;2022-11-20T11:52:46;101141.28;;;4.76;74.11
76024;BME280;64719;52.124;6.226;2022-11-20T11:55:19;101143.72;;;4.42;75.37
76024;BME280;64719;52.124;6.226;2022-11-20T11:57:53;101131.72;;;4.01;77.16
76024;BME280;64719;52.124;6.226;2022-11-20T12:00:22;101130.59;;;3.96;76.75
76024;BME280;64719;52.124;6.226;2022-11-20T12:02:55;101118.53;;;3.92;77.06
76024;BME280;64719;52.124;6.226;2022-11-20T12:05:24;101122.34;;;3.60;77.01
76024;BME280;64719;52.124;6.226;2022-11-20T12:07:52;101112.19;;;3.47;78.85
76024;BME280;64719;52.124;6.226;2022-11-20T12:10:23;101112.47;;;3.38;78.99
76024;BME280;64719;52.124;6.226;2022-11-20T12:13:01;101114.81;;;3.78;79.21
76024;BME280;64719;52.124;6.226;2022-11-20T12:15:30;101108.22;;;3.80;77.56
76024;BME280;64719;52.124;6.226;2022-11-20T12:17:59;101109.06;;;3.44;77.43
76024;BME280;64719;52.124;6.226;2022-11-20T12:20:27;101100.03;;;3.14;79.95
76024;BME280;64719;52.124;6.226;2022-11-20T12:23:00;101093.00;;;3.13;79.78
76024;BME280;64719;52.124;6.226;2022-11-20T12:25:30;101094.84;;;3.13;79.82
76024;BME280;64719;52.124;6.226;2022-11-20T12:28:29;101085.72;;;2.99;80.63
76024;BME280;64719;52.124;6.226;2022-11-20T12:31:11;101072.63;;;3.04;80.88
76024;BME280;64719;52.124;6.226;2022-11-20T12:33:56;101065.44;;;3.05;81.26
76024;BME280;64719;52.124;6.226;2022-11-20T12:36:32;101057.78;;;2.94;82.22
76024;BME280;64719;52.124;6.226;2022-11-20T12:39:20;101048.81;;;2.87;82.59
76024;BME280;64719;52.124;6.226;2022-11-20T12:42:04;101040.38;;;2.67;83.08
76024;BME280;64719;52.124;6.226;2022-11-20T12:45:05;101040.22;;;2.69;83.36
76024;BME280;64719;52.124;6.226;2022-11-20T12:47:56;101032.81;;;2.71;84.16
76024;BME280;64719;52.124;6.226;2022-11-20T12:50:35;101036.38;;;2.63;83.98
76024;BME280;64719;52.124;6.226;2022-11-20T12:53:11;101036.75;;;2.52;84.97
76024;BME280;64719;52.124;6.226;2022-11-20T12:55:45;101038.47;;;2.45;84.10
76024;BME280;64719;52.124;6.226;2022-11-20T12:58:20;101034.00;;;2.38;85.18
76024;BME280;64719;52.124;6.226;2022-11-20T13:00:56;101031.91;;;2.17;85.51
76024;BME280;64719;52.124;6.226;2022-11-20T13:03:36;101016.38;;;2.13;85.61